Decoded Metar for LFRN (RENNES in FRANCE) (IATA:RNS) | Meteo·Mobile Aviation Weather
aviador You're here:

LFRN Decoded Metar

RENNES in FRANCE
Report Time2018-10-18 16:00:00
UTC Time2018-10-18 16:21:39
Flight Rules vfr VFR
Wind020° at 09 kt
W.Decomp.*RWY 32: 4.2 kt HW 7.9 kt RCW
RWY 10: 1.9 kt HW 8.8 kt LCW
W.Rank020° ranks 18
Current wind is above 020° avg. (6.2)
Visibility9999 m
Phenomena:N/A
Clouds:N/A
Expected CloudBase > 3,200 ft AGL from Temp-Dew spread
CeilingNone
Temp19°C (ISA +4)
Dew Point11°C (60% RH)
AAT16.1°C
QNH1020 hPa
Density Alt561 ft
Elevation121 ft
Report Wrong Elevation
Raw Report
METAR LFRN 181600Z AUTO 02009KT CAVOK 19/11 Q1020 NOSIG=

Extra information for LFRN:More info

Metar Taf Metar & Taf Last 4 Metars F.Rules Stats Wind Profile Meteogram Temp Stats Airport Information Weather charts Add Link Nearby VenuesMetar ALERT Operation Metar Decoded Social comments